createdAt,value
2019-02-21T00:00:48.483Z,9.50
2019-02-21T00:01:48.435Z,11.30
2019-02-21T00:02:48.443Z,11.00
2019-02-21T00:03:48.445Z,10.40
2019-02-21T00:04:48.452Z,10.10
2019-02-21T00:05:48.569Z,10.00
2019-02-21T00:06:48.562Z,10.20
2019-02-21T00:07:48.469Z,10.20
2019-02-21T00:08:48.493Z,9.60
2019-02-21T00:09:48.485Z,9.70
2019-02-21T00:10:48.515Z,10.40
2019-02-21T00:11:48.511Z,10.00
2019-02-21T00:12:48.506Z,10.00
2019-02-21T00:13:48.567Z,9.60
2019-02-21T00:14:48.569Z,10.40
2019-02-21T00:15:48.531Z,9.90
2019-02-21T00:16:48.524Z,10.20
2019-02-21T00:17:48.549Z,10.80
2019-02-21T00:18:48.621Z,10.40
2019-02-21T00:19:48.566Z,10.20
2019-02-21T00:20:48.556Z,9.50
2019-02-21T00:21:48.579Z,10.40
2019-02-21T00:22:48.582Z,9.90
2019-02-21T00:23:48.648Z,10.40
2019-02-21T00:24:48.595Z,10.10
2019-02-21T00:25:48.645Z,10.10
2019-02-21T00:26:48.593Z,10.50
2019-02-21T00:27:48.593Z,9.90
2019-02-21T00:28:48.618Z,10.50
2019-02-21T00:29:48.617Z,10.00
2019-02-21T00:30:48.603Z,11.40
2019-02-21T00:31:48.602Z,10.70
2019-02-21T00:32:48.602Z,10.90
2019-02-21T00:33:48.607Z,11.20
2019-02-21T00:34:48.648Z,10.30
2019-02-21T00:35:48.687Z,11.40
2019-02-21T00:36:48.676Z,11.00
2019-02-21T00:37:48.707Z,11.30
2019-02-21T00:38:48.644Z,10.80
2019-02-21T00:39:48.642Z,11.10
2019-02-21T00:40:48.638Z,10.30
2019-02-21T00:41:48.681Z,10.40
2019-02-21T00:42:48.653Z,11.00
2019-02-21T00:43:48.720Z,10.40
2019-02-21T00:44:48.731Z,10.60
2019-02-21T00:45:48.696Z,10.80
2019-02-21T00:46:48.725Z,10.60
2019-02-21T00:47:48.704Z,10.80
2019-02-21T00:48:48.696Z,11.00
2019-02-21T00:49:48.759Z,11.20
2019-02-21T00:50:48.713Z,11.00
2019-02-21T00:51:48.708Z,11.40
2019-02-21T00:52:48.736Z,9.50
2019-02-21T00:53:48.722Z,10.90
2019-02-21T00:54:48.717Z,10.30
2019-02-21T00:55:48.751Z,9.10
2019-02-21T00:56:48.728Z,9.30
2019-02-21T00:57:48.769Z,9.90
2019-02-21T00:58:48.966Z,10.20
2019-02-21T00:59:50.829Z,9.20
2019-02-21T01:00:48.755Z,9.80
2019-02-21T01:01:48.780Z,9.40
2019-02-21T01:02:48.754Z,9.20
2019-02-21T01:03:48.797Z,9.90
2019-02-21T01:04:48.979Z,9.30
2019-02-21T01:05:48.778Z,9.30
2019-02-21T01:06:48.785Z,10.20
2019-02-21T01:07:48.788Z,10.00
2019-02-21T01:08:48.822Z,8.90
2019-02-21T01:09:48.816Z,9.60
2019-02-21T01:10:48.821Z,9.10
2019-02-21T01:11:49.011Z,9.20
2019-02-21T01:12:48.821Z,8.60
2019-02-21T01:13:48.825Z,8.70
2019-02-21T01:14:48.851Z,9.30
2019-02-21T01:15:48.885Z,9.70
2019-02-21T01:16:48.865Z,8.90
2019-02-21T01:17:48.852Z,9.20
2019-02-21T01:18:48.887Z,9.60
2019-02-21T01:19:48.863Z,8.80
2019-02-21T01:20:48.870Z,9.40
2019-02-21T01:21:48.882Z,9.50
2019-02-21T01:22:48.881Z,9.50
2019-02-21T01:23:48.879Z,9.90
2019-02-21T01:24:48.938Z,9.60
2019-02-21T01:25:48.890Z,9.10
2019-02-21T01:26:48.910Z,9.50
2019-02-21T01:27:48.912Z,8.50
2019-02-21T01:28:48.915Z,8.80
2019-02-21T01:29:48.912Z,9.10
2019-02-21T01:30:56.706Z,8.40
2019-02-21T01:31:48.931Z,9.10
2019-02-21T01:32:48.931Z,9.10
2019-02-21T01:33:48.969Z,8.50
2019-02-21T01:34:48.940Z,9.00
2019-02-21T01:35:48.953Z,8.60
2019-02-21T01:36:48.960Z,8.80
2019-02-21T01:37:48.958Z,8.70
2019-02-21T01:38:49.010Z,8.90
2019-02-21T01:39:48.957Z,7.80
2019-02-21T01:40:49.008Z,8.30
2019-02-21T01:41:48.972Z,8.10
2019-02-21T01:42:48.996Z,8.10
2019-02-21T01:43:48.985Z,7.70
2019-02-21T01:44:48.992Z,7.60
2019-02-21T01:45:49.031Z,8.30
2019-02-21T01:46:49.000Z,8.30
2019-02-21T01:47:49.023Z,8.20
2019-02-21T01:48:49.019Z,8.00
2019-02-21T01:49:49.038Z,7.80
2019-02-21T01:50:49.026Z,7.90
2019-02-21T01:51:49.060Z,8.40
2019-02-21T01:52:49.044Z,8.40
2019-02-21T01:53:49.040Z,8.00
2019-02-21T01:54:49.066Z,8.60
2019-02-21T01:55:49.173Z,8.40
2019-02-21T01:56:49.068Z,8.10
2019-02-21T01:57:49.055Z,8.50
2019-02-21T01:58:49.060Z,8.80
2019-02-21T01:59:49.088Z,8.60
2019-02-21T02:00:49.094Z,7.90
2019-02-21T02:01:49.097Z,8.70
2019-02-21T02:02:49.090Z,8.20
2019-02-21T02:03:49.095Z,8.20
2019-02-21T02:04:49.185Z,8.00
2019-02-21T02:05:49.107Z,7.80
2019-02-21T02:06:49.114Z,7.70
2019-02-21T02:07:49.123Z,8.70
2019-02-21T02:08:49.150Z,8.50
2019-02-21T02:09:49.114Z,8.70
2019-02-21T02:10:49.116Z,8.60
2019-02-21T02:11:49.174Z,9.60
2019-02-21T02:12:49.132Z,9.30
2019-02-21T02:13:49.146Z,8.90
2019-02-21T02:14:49.149Z,9.30
2019-02-21T02:15:49.219Z,9.30
2019-02-21T02:16:49.157Z,8.30
2019-02-21T02:17:49.197Z,8.50
2019-02-21T02:18:49.164Z,8.60
2019-02-21T02:19:49.220Z,7.90
2019-02-21T02:20:49.185Z,8.40
2019-02-21T02:21:49.178Z,8.30
2019-02-21T02:22:49.197Z,8.80
2019-02-21T02:23:49.202Z,8.10
2019-02-21T02:24:49.204Z,8.80
2019-02-21T02:25:49.267Z,9.30
2019-02-21T02:26:49.226Z,8.10
2019-02-21T02:27:49.225Z,8.10
2019-02-21T02:28:49.230Z,8.60
2019-02-21T02:29:49.228Z,9.30
2019-02-21T02:30:49.240Z,9.60
2019-02-21T02:31:49.265Z,9.40
2019-02-21T02:32:49.257Z,8.60
2019-02-21T02:33:49.270Z,9.10
2019-02-21T02:34:49.259Z,8.70
2019-02-21T02:35:49.282Z,9.50
2019-02-21T02:36:49.267Z,9.00
2019-02-21T02:37:49.276Z,9.30
2019-02-21T02:38:49.289Z,9.30
2019-02-21T02:39:49.270Z,9.10
2019-02-21T02:40:49.345Z,10.10
2019-02-21T02:41:49.320Z,9.80
2019-02-21T02:42:49.301Z,10.10
2019-02-21T02:43:49.306Z,10.80
2019-02-21T02:44:49.304Z,10.30
2019-02-21T02:45:49.306Z,9.80
2019-02-21T02:46:49.340Z,11.00
2019-02-21T02:47:49.316Z,10.20
2019-02-21T02:48:49.323Z,10.30
2019-02-21T02:49:49.337Z,10.00
2019-02-21T02:50:49.347Z,10.90
2019-02-21T02:51:49.385Z,11.30
2019-02-21T02:52:49.353Z,11.30
2019-02-21T02:53:49.346Z,11.20
2019-02-21T02:54:49.367Z,10.70
2019-02-21T02:55:49.357Z,10.90
2019-02-21T02:56:49.388Z,10.20
2019-02-21T02:57:49.412Z,10.50
2019-02-21T02:58:49.403Z,11.10
2019-02-21T02:59:49.391Z,10.80
2019-02-21T03:00:49.384Z,11.10
2019-02-21T03:01:49.429Z,10.20
2019-02-21T03:02:49.410Z,10.30
2019-02-21T03:03:49.420Z,10.20
2019-02-21T03:04:49.427Z,11.10
2019-02-21T03:05:49.442Z,9.90
2019-02-21T03:06:49.415Z,10.80
2019-02-21T03:07:49.441Z,10.00
2019-02-21T03:08:49.479Z,11.50
2019-02-21T03:09:49.455Z,11.00
2019-02-21T03:10:49.458Z,10.50
2019-02-21T03:11:51.788Z,10.80
2019-02-21T03:12:49.489Z,11.60
2019-02-21T03:13:49.450Z,10.90
2019-02-21T03:14:49.498Z,10.60
2019-02-21T03:15:49.479Z,11.20
2019-02-21T03:16:49.483Z,12.10
2019-02-21T03:17:49.489Z,11.90
2019-02-21T03:18:49.501Z,11.50
2019-02-21T03:19:49.610Z,11.80
2019-02-21T03:20:49.521Z,12.10
2019-02-21T03:21:49.517Z,12.80
2019-02-21T03:22:49.546Z,12.50
2019-02-21T03:23:49.578Z,11.60
2019-02-21T03:24:49.511Z,12.40
2019-02-21T03:25:49.520Z,12.10
2019-02-21T03:26:49.560Z,13.10
2019-02-21T03:27:49.543Z,12.20
2019-02-21T03:28:49.550Z,13.20
2019-02-21T03:29:49.578Z,13.40
2019-02-21T03:30:49.623Z,12.20
2019-02-21T03:31:55.209Z,12.70
2019-02-21T03:32:49.569Z,13.00
2019-02-21T03:33:49.574Z,13.60
2019-02-21T03:34:49.595Z,13.20
2019-02-21T03:35:49.599Z,13.40
2019-02-21T03:36:49.605Z,13.90
2019-02-21T03:37:49.623Z,14.10
2019-02-21T03:38:49.603Z,14.40
2019-02-21T03:39:49.608Z,13.50
2019-02-21T03:40:49.600Z,13.60
2019-02-21T03:41:49.638Z,14.60
2019-02-21T03:42:49.616Z,14.80
2019-02-21T03:43:49.615Z,16.00
2019-02-21T03:44:49.654Z,15.80
2019-02-21T03:45:49.632Z,15.50
2019-02-21T03:46:49.664Z,14.90
2019-02-21T03:47:49.672Z,15.60
2019-02-21T03:48:49.669Z,15.80
2019-02-21T03:49:49.659Z,15.80
2019-02-21T03:50:49.666Z,16.20
2019-02-21T03:51:49.686Z,16.70
2019-02-21T03:52:49.710Z,16.60
2019-02-21T03:53:49.694Z,16.40
2019-02-21T03:54:49.726Z,16.30
2019-02-21T03:55:49.695Z,15.80
2019-02-21T03:56:49.717Z,17.10
2019-02-21T03:57:49.732Z,17.30
2019-02-21T03:58:49.702Z,16.70
2019-02-21T03:59:49.735Z,17.10
2019-02-21T04:00:49.712Z,17.20
2019-02-21T04:01:49.710Z,17.00
2019-02-21T04:02:49.751Z,17.50
2019-02-21T04:03:49.754Z,17.50
2019-02-21T04:04:49.745Z,17.60
2019-02-21T04:05:49.748Z,17.30
2019-02-21T04:06:49.755Z,18.30
2019-02-21T04:07:49.766Z,17.90
2019-02-21T04:08:49.795Z,18.10
2019-02-21T04:09:49.782Z,17.80
2019-02-21T04:10:49.775Z,18.10
2019-02-21T04:11:49.773Z,18.70
2019-02-21T04:12:49.779Z,18.40
2019-02-21T04:13:49.777Z,18.40
2019-02-21T04:14:49.801Z,18.60
2019-02-21T04:15:49.805Z,18.60
2019-02-21T04:16:49.836Z,18.30
2019-02-21T04:17:49.798Z,18.80
2019-02-21T04:18:49.804Z,18.80
2019-02-21T04:19:49.865Z,18.40
2019-02-21T04:20:49.918Z,19.00
2019-02-21T04:21:49.822Z,18.50
2019-02-21T04:22:49.901Z,19.70
2019-02-21T04:23:49.865Z,18.50
2019-02-21T04:24:49.845Z,19.60
2019-02-21T04:25:49.838Z,19.30
2019-02-21T04:26:49.931Z,19.40
2019-02-21T04:27:49.865Z,19.50
2019-02-21T04:28:49.918Z,20.00
2019-02-21T04:29:49.877Z,20.00
2019-02-21T04:30:49.917Z,21.20
2019-02-21T04:31:49.959Z,19.70
2019-02-21T04:32:49.900Z,20.30
2019-02-21T04:33:49.925Z,19.70
2019-02-21T04:34:49.899Z,19.90
2019-02-21T04:35:49.940Z,20.50
2019-02-21T04:36:49.907Z,20.60
2019-02-21T04:37:49.935Z,20.80
2019-02-21T04:38:49.911Z,21.00
2019-02-21T04:39:49.992Z,20.80
2019-02-21T04:40:49.963Z,20.70
2019-02-21T04:41:49.968Z,20.60
2019-02-21T04:42:49.981Z,21.10
2019-02-21T04:43:49.981Z,21.70
2019-02-21T04:44:49.946Z,20.10
2019-02-21T04:45:49.960Z,21.20
2019-02-21T04:46:49.964Z,21.20
2019-02-21T04:47:49.983Z,22.20
2019-02-21T04:48:49.988Z,21.80
2019-02-21T04:49:50.052Z,21.70
2019-02-21T04:50:49.986Z,21.40
2019-02-21T04:51:49.984Z,22.30
2019-02-21T04:52:50.005Z,21.40
2019-02-21T04:53:50.010Z,23.30
2019-02-21T04:54:50.006Z,21.80
2019-02-21T04:55:50.030Z,22.70
2019-02-21T04:56:50.018Z,22.90
2019-02-21T04:57:50.081Z,23.30
2019-02-21T04:58:50.052Z,22.60
2019-02-21T04:59:50.039Z,22.70
2019-02-21T05:00:50.067Z,23.90
2019-02-21T05:01:50.048Z,23.10
2019-02-21T05:02:50.058Z,23.50
2019-02-21T05:03:50.113Z,23.30
2019-02-21T05:04:50.082Z,23.10
2019-02-21T05:05:50.067Z,23.30
2019-02-21T05:06:50.074Z,23.70
2019-02-21T05:07:50.060Z,24.10
2019-02-21T05:08:50.121Z,24.00
2019-02-21T05:09:58.124Z,23.80
2019-02-21T05:10:50.094Z,23.10
2019-02-21T05:11:50.081Z,22.80
2019-02-21T05:12:50.102Z,24.70
2019-02-21T05:13:50.107Z,23.80
2019-02-21T05:14:50.150Z,24.20
2019-02-21T05:15:50.116Z,23.80
2019-02-21T05:16:50.162Z,24.60
2019-02-21T05:17:50.132Z,24.30
2019-02-21T05:18:50.131Z,24.20
2019-02-21T05:19:50.136Z,24.30
2019-02-21T05:20:50.176Z,25.00
2019-02-21T05:21:50.197Z,25.10
2019-02-21T05:22:50.146Z,24.90
2019-02-21T05:23:50.164Z,24.30
2019-02-21T05:24:50.167Z,25.60
2019-02-21T05:25:50.266Z,26.10
2019-02-21T05:26:50.179Z,24.90
2019-02-21T05:27:50.191Z,26.40
2019-02-21T05:28:50.202Z,26.00
2019-02-21T05:29:50.198Z,25.70
2019-02-21T05:30:50.187Z,26.50
2019-02-21T05:31:50.218Z,26.60
2019-02-21T05:32:50.220Z,25.80
2019-02-21T05:33:50.239Z,27.40
2019-02-21T05:34:50.226Z,27.70
2019-02-21T05:35:50.209Z,26.50
2019-02-21T05:36:50.250Z,26.30
2019-02-21T05:37:50.262Z,26.10
2019-02-21T05:38:50.248Z,27.10
2019-02-21T05:39:50.274Z,27.40
2019-02-21T05:40:50.248Z,28.50
2019-02-21T05:41:50.288Z,28.20
2019-02-21T05:42:50.271Z,28.90
2019-02-21T05:43:50.404Z,29.80
2019-02-21T05:44:50.260Z,27.60
2019-02-21T05:45:50.275Z,28.70
2019-02-21T05:46:50.270Z,28.10
2019-02-21T05:47:50.277Z,28.70
2019-02-21T05:48:50.291Z,29.10
2019-02-21T05:49:50.371Z,28.20
2019-02-21T05:50:50.299Z,28.70
2019-02-21T05:51:50.305Z,28.60
2019-02-21T05:52:50.314Z,28.50
2019-02-21T05:53:50.323Z,28.60
2019-02-21T05:54:50.340Z,28.70
2019-02-21T05:55:50.338Z,30.00
2019-02-21T05:56:50.329Z,29.10
2019-02-21T05:57:50.396Z,29.60
2019-02-21T05:58:50.355Z,28.90
2019-02-21T05:59:50.383Z,30.10
2019-02-21T06:00:50.347Z,29.70
2019-02-21T06:01:50.420Z,29.60
2019-02-21T06:02:53.284Z,28.60
2019-02-21T06:03:50.403Z,30.00
2019-02-21T06:04:52.046Z,30.70
2019-02-21T06:05:50.430Z,30.40
2019-02-21T06:06:50.400Z,30.30
2019-02-21T06:07:50.391Z,29.30
2019-02-21T06:08:50.427Z,28.60
2019-02-21T06:09:50.396Z,29.30
2019-02-21T06:10:50.413Z,30.80
2019-02-21T06:11:50.423Z,29.50
2019-02-21T06:12:50.419Z,30.10
2019-02-21T06:13:50.431Z,30.80
2019-02-21T06:14:50.446Z,30.50
2019-02-21T06:15:50.447Z,29.50
2019-02-21T06:16:50.458Z,30.00
2019-02-21T06:17:50.448Z,29.70
2019-02-21T06:18:50.447Z,30.50
2019-02-21T06:19:50.441Z,31.20
2019-02-21T06:20:50.479Z,29.80
2019-02-21T06:21:51.000Z,29.80
2019-02-21T06:22:50.466Z,29.10
2019-02-21T06:23:50.459Z,29.70
2019-02-21T06:24:50.475Z,29.90
2019-02-21T06:25:53.113Z,31.30
2019-02-21T06:26:50.530Z,31.40
2019-02-21T06:27:50.496Z,31.60
2019-02-21T06:28:50.489Z,31.00
2019-02-21T06:29:50.494Z,31.50
2019-02-21T06:30:50.510Z,31.60
2019-02-21T06:31:50.544Z,31.50
2019-02-21T06:32:50.526Z,29.90
2019-02-21T06:33:50.523Z,30.40
2019-02-21T06:34:52.383Z,29.60
2019-02-21T06:35:50.539Z,29.30
2019-02-21T06:36:50.585Z,30.00
2019-02-21T06:37:50.543Z,29.60
2019-02-21T06:38:50.588Z,30.00
2019-02-21T06:39:50.576Z,29.80
2019-02-21T06:40:50.623Z,29.60
2019-02-21T06:41:59.027Z,28.60
2019-02-21T06:42:50.592Z,30.90
2019-02-21T06:43:52.547Z,30.00
2019-02-21T06:44:50.585Z,29.50
2019-02-21T06:45:50.600Z,30.60
2019-02-21T06:46:50.641Z,29.30
2019-02-21T06:47:50.777Z,31.80
2019-02-21T06:48:51.690Z,30.40
2019-02-21T06:49:50.675Z,31.00
2019-02-21T06:50:50.684Z,30.90
2019-02-21T06:51:51.012Z,29.90
2019-02-21T06:52:50.678Z,30.80
2019-02-21T06:53:53.022Z,29.90
2019-02-21T06:54:50.636Z,30.10
2019-02-21T06:55:50.731Z,29.60
2019-02-21T06:56:50.642Z,29.80
2019-02-21T06:57:50.685Z,29.40
2019-02-21T06:58:50.664Z,28.30
2019-02-21T06:59:50.670Z,29.00
2019-02-21T07:00:50.721Z,30.00
2019-02-21T07:01:50.696Z,28.00
2019-02-21T07:02:50.667Z,29.40
2019-02-21T07:03:50.674Z,30.00
2019-02-21T07:04:50.690Z,29.40
2019-02-21T07:05:50.700Z,30.00
2019-02-21T07:06:50.746Z,28.70
2019-02-21T07:07:50.728Z,28.70
2019-02-21T07:08:50.714Z,29.50
2019-02-21T07:09:50.755Z,28.50
2019-02-21T07:10:50.736Z,29.20
2019-02-21T07:11:50.733Z,28.50
2019-02-21T07:12:50.740Z,27.90
2019-02-21T07:13:50.769Z,28.60
2019-02-21T07:14:50.761Z,29.00
2019-02-21T07:15:50.752Z,28.90
2019-02-21T07:16:50.765Z,29.80
2019-02-21T07:17:50.783Z,29.60
2019-02-21T07:18:50.810Z,29.90
2019-02-21T07:19:50.835Z,29.30
2019-02-21T07:20:50.830Z,28.30
2019-02-21T07:21:50.799Z,28.10
2019-02-21T07:22:50.807Z,28.70
2019-02-21T07:23:50.808Z,29.30
2019-02-21T07:24:50.840Z,29.10
2019-02-21T07:25:50.860Z,29.20
2019-02-21T07:26:50.806Z,30.00
2019-02-21T07:27:50.874Z,30.00
2019-02-21T07:28:50.834Z,30.10
2019-02-21T07:29:50.852Z,29.70
2019-02-21T07:30:50.871Z,29.60
2019-02-21T07:31:50.877Z,29.10
2019-02-21T07:32:50.853Z,29.10
2019-02-21T07:33:50.848Z,29.00
2019-02-21T07:34:50.892Z,28.60
2019-02-21T07:35:50.858Z,28.50
2019-02-21T07:36:50.896Z,28.70
2019-02-21T07:37:50.893Z,28.20
2019-02-21T07:38:50.921Z,28.10
2019-02-21T07:39:50.962Z,28.00
2019-02-21T07:40:50.933Z,27.50
2019-02-21T07:41:50.955Z,27.20
2019-02-21T07:42:50.930Z,27.20
2019-02-21T07:43:51.897Z,27.30
2019-02-21T07:44:50.941Z,27.30
2019-02-21T07:45:50.953Z,27.80
2019-02-21T07:46:53.338Z,28.60
2019-02-21T07:47:50.941Z,26.70
2019-02-21T07:48:50.997Z,26.70
2019-02-21T07:49:50.972Z,26.80
2019-02-21T07:50:50.951Z,26.60
2019-02-21T07:51:50.965Z,26.00
2019-02-21T07:53:01.707Z,25.70
2019-02-21T07:53:50.972Z,26.10
2019-02-21T07:55:01.096Z,25.90
2019-02-21T07:55:50.976Z,26.60
2019-02-21T07:56:51.018Z,26.00
2019-02-21T07:57:51.006Z,26.30
2019-02-21T07:58:51.009Z,25.00
2019-02-21T07:59:51.005Z,25.80
2019-02-21T08:00:51.028Z,25.50
2019-02-21T08:01:51.013Z,25.20
2019-02-21T08:02:51.045Z,25.60
2019-02-21T08:03:51.088Z,24.60
2019-02-21T08:04:51.072Z,25.20
2019-02-21T08:05:51.031Z,25.90
2019-02-21T08:06:51.105Z,25.20
2019-02-21T08:07:51.094Z,25.00
2019-02-21T08:08:51.055Z,24.60
2019-02-21T08:09:51.063Z,25.30
2019-02-21T08:10:51.088Z,25.40
2019-02-21T08:11:51.087Z,25.10
2019-02-21T08:12:53.460Z,24.90
2019-02-21T08:13:51.095Z,25.10
2019-02-21T08:14:51.127Z,25.30
2019-02-21T08:15:51.121Z,26.60
2019-02-21T08:16:51.105Z,25.60
2019-02-21T08:17:51.115Z,24.80
2019-02-21T08:18:51.126Z,24.90
2019-02-21T08:19:51.147Z,25.40
2019-02-21T08:20:51.134Z,26.30
2019-02-21T08:21:51.266Z,25.60
2019-02-21T08:22:51.132Z,26.30
2019-02-21T08:23:51.239Z,26.40
2019-02-21T08:24:51.180Z,25.90
2019-02-21T08:25:51.179Z,26.80
2019-02-21T08:26:51.172Z,26.10
2019-02-21T08:27:51.172Z,26.10
2019-02-21T08:28:51.192Z,26.70
2019-02-21T08:29:51.179Z,26.40
2019-02-21T08:30:51.237Z,26.80
2019-02-21T08:31:51.229Z,27.50
2019-02-21T08:32:51.221Z,26.50
2019-02-21T08:33:58.508Z,27.00
2019-02-21T08:34:51.249Z,26.20
2019-02-21T08:35:53.947Z,27.10
2019-02-21T08:36:51.288Z,28.10
2019-02-21T08:37:51.264Z,28.00
2019-02-21T08:38:51.236Z,27.80
2019-02-21T08:39:51.234Z,27.30
2019-02-21T08:40:53.161Z,27.10
2019-02-21T08:41:51.278Z,28.60
2019-02-21T08:42:51.280Z,29.30
2019-02-21T08:43:51.304Z,28.20
2019-02-21T08:44:51.304Z,28.20
2019-02-21T08:45:51.278Z,28.00
2019-02-21T08:46:53.388Z,28.60
2019-02-21T08:47:51.319Z,27.90
2019-02-21T08:48:51.477Z,28.10
2019-02-21T08:49:51.346Z,29.20
2019-02-21T08:50:51.305Z,27.80
2019-02-21T08:51:51.364Z,28.30
2019-02-21T08:52:51.424Z,29.50
2019-02-21T08:53:51.363Z,28.10
2019-02-21T08:54:59.820Z,28.50
2019-02-21T08:55:51.342Z,28.70
2019-02-21T08:56:51.345Z,28.70
2019-02-21T08:57:51.350Z,28.30
2019-02-21T08:58:51.388Z,27.50
2019-02-21T08:59:51.397Z,27.50
2019-02-21T09:00:51.388Z,28.20
2019-02-21T09:01:51.412Z,27.90
2019-02-21T09:02:51.374Z,28.90
2019-02-21T09:03:51.395Z,28.60
2019-02-21T09:04:51.451Z,26.70
2019-02-21T09:05:51.392Z,27.00
2019-02-21T09:06:51.455Z,27.00
2019-02-21T09:07:51.429Z,26.40
2019-02-21T09:08:51.427Z,27.60
2019-02-21T09:09:51.427Z,28.30
2019-02-21T09:10:51.429Z,27.70
2019-02-21T09:11:53.767Z,27.40
2019-02-21T09:12:51.463Z,28.00
2019-02-21T09:13:51.489Z,29.50
2019-02-21T09:14:51.458Z,28.20
2019-02-21T09:15:51.470Z,27.70
2019-02-21T09:16:51.497Z,28.50
2019-02-21T09:17:53.920Z,28.60
2019-02-21T09:18:51.500Z,28.30
2019-02-21T09:19:51.504Z,26.80
2019-02-21T09:20:51.497Z,27.10
2019-02-21T09:21:53.480Z,27.80
2019-02-21T09:22:51.547Z,26.20
2019-02-21T09:23:51.514Z,28.40
2019-02-21T09:24:51.518Z,28.00
2019-02-21T09:25:51.552Z,27.70
2019-02-21T09:26:51.537Z,26.20
2019-02-21T09:27:51.633Z,26.60
2019-02-21T09:28:51.549Z,26.20
2019-02-21T09:29:51.543Z,27.40
2019-02-21T09:30:51.561Z,27.30
2019-02-21T09:31:51.575Z,27.00
2019-02-21T09:32:51.600Z,27.50
2019-02-21T09:33:51.607Z,26.80
2019-02-21T09:34:51.584Z,27.10
2019-02-21T09:35:51.665Z,26.30
2019-02-21T09:36:51.611Z,25.90
2019-02-21T09:37:51.831Z,26.20
2019-02-21T09:38:51.611Z,26.50
2019-02-21T09:39:51.643Z,25.90
2019-02-21T09:40:51.618Z,25.80
2019-02-21T09:41:51.645Z,27.10
2019-02-21T09:42:51.637Z,25.30
2019-02-21T09:43:51.659Z,25.50
2019-02-21T09:44:51.663Z,24.60
2019-02-21T09:45:51.655Z,25.60
2019-02-21T09:46:51.701Z,25.70
2019-02-21T09:47:51.665Z,26.00
2019-02-21T09:48:51.667Z,25.40
2019-02-21T09:49:51.688Z,25.30
2019-02-21T09:50:51.709Z,25.20
2019-02-21T09:51:51.702Z,26.00
2019-02-21T09:52:51.712Z,25.60
2019-02-21T09:53:51.709Z,26.70
2019-02-21T09:54:51.724Z,25.80
2019-02-21T09:55:51.732Z,25.60
2019-02-21T09:56:53.117Z,25.70
2019-02-21T09:57:51.745Z,25.70
2019-02-21T09:58:51.747Z,24.60
2019-02-21T09:59:51.756Z,25.20
2019-02-21T10:00:51.778Z,25.90
2019-02-21T10:01:51.800Z,25.10
2019-02-21T10:02:55.794Z,25.40
2019-02-21T10:03:51.768Z,25.40
2019-02-21T10:04:51.786Z,24.00
2019-02-21T10:05:51.796Z,26.40
2019-02-21T10:06:51.792Z,25.10
2019-02-21T10:07:51.825Z,23.80
2019-02-21T10:08:51.810Z,23.80
2019-02-21T10:09:51.818Z,24.40
2019-02-21T10:10:51.817Z,24.90
2019-02-21T10:11:51.848Z,24.90
2019-02-21T10:12:51.900Z,24.90
2019-02-21T10:13:51.847Z,23.90
2019-02-21T10:14:51.860Z,24.30
2019-02-21T10:15:51.888Z,23.50
2019-02-21T10:16:51.876Z,23.40
2019-02-21T10:17:51.874Z,24.40
2019-02-21T10:18:51.935Z,22.70
2019-02-21T10:19:51.882Z,23.20
2019-02-21T10:20:51.915Z,23.20
2019-02-21T10:21:51.926Z,23.90
2019-02-21T10:22:51.910Z,23.70
2019-02-21T10:23:51.916Z,23.80
2019-02-21T10:24:51.999Z,23.50
2019-02-21T10:25:51.933Z,23.80
2019-02-21T10:26:52.042Z,23.60
2019-02-21T10:27:52.000Z,24.50
2019-02-21T10:28:51.936Z,23.70
2019-02-21T10:29:51.952Z,23.60
2019-02-21T10:30:51.968Z,24.60
2019-02-21T10:31:51.978Z,23.50
2019-02-21T10:32:51.982Z,24.20
2019-02-21T10:33:51.994Z,26.90
2019-02-21T10:34:53.124Z,24.20
2019-02-21T10:35:52.007Z,24.60
2019-02-21T10:36:52.008Z,24.30
2019-02-21T10:37:52.010Z,23.60
2019-02-21T10:38:52.003Z,24.20
2019-02-21T10:39:52.029Z,23.50
2019-02-21T10:40:52.097Z,23.40
2019-02-21T10:41:52.039Z,24.10
2019-02-21T10:42:52.079Z,23.90
2019-02-21T10:43:52.078Z,24.00
2019-02-21T10:44:52.093Z,24.40
2019-02-21T10:45:52.077Z,22.80
2019-02-21T10:46:52.080Z,23.30
2019-02-21T10:47:52.088Z,24.80
2019-02-21T10:48:52.156Z,25.10
2019-02-21T10:49:52.143Z,23.80
2019-02-21T10:50:52.081Z,24.10
2019-02-21T10:51:52.138Z,23.60
2019-02-21T10:52:52.112Z,23.90
2019-02-21T10:53:52.113Z,23.10
2019-02-21T10:54:52.127Z,23.60
2019-02-21T10:55:52.146Z,22.60
2019-02-21T10:56:52.142Z,23.70
2019-02-21T10:57:52.155Z,23.70
2019-02-21T10:58:52.183Z,23.10
2019-02-21T10:59:52.147Z,22.90
2019-02-21T11:00:52.171Z,22.90
2019-02-21T11:01:52.170Z,23.70
2019-02-21T11:02:52.158Z,22.50
2019-02-21T11:03:52.182Z,22.40
2019-02-21T11:04:55.067Z,22.40
2019-02-21T11:05:52.239Z,22.80
2019-02-21T11:06:52.187Z,21.60
2019-02-21T11:07:52.195Z,22.20
2019-02-21T11:08:52.202Z,21.50
2019-02-21T11:09:52.309Z,21.50
2019-02-21T11:10:52.212Z,21.80
2019-02-21T11:11:52.245Z,20.70
2019-02-21T11:12:52.297Z,21.10
2019-02-21T11:13:52.225Z,20.90
2019-02-21T11:14:52.234Z,21.00
2019-02-21T11:15:52.237Z,21.10
2019-02-21T11:16:52.324Z,20.10
2019-02-21T11:17:52.249Z,20.40
2019-02-21T11:18:52.256Z,20.10
2019-02-21T11:19:52.290Z,19.60
2019-02-21T11:20:52.274Z,20.20
2019-02-21T11:21:52.306Z,20.40
2019-02-21T11:22:52.330Z,19.30
2019-02-21T11:23:52.319Z,20.40
2019-02-21T11:24:52.326Z,20.00
2019-02-21T11:25:52.312Z,19.10
2019-02-21T11:26:52.316Z,19.20
2019-02-21T11:27:52.324Z,19.50
2019-02-21T11:28:52.353Z,19.70
2019-02-21T11:29:52.372Z,18.90
2019-02-21T11:30:52.362Z,19.40
2019-02-21T11:31:52.359Z,18.80
2019-02-21T11:32:52.396Z,18.80
2019-02-21T11:33:52.355Z,19.10
2019-02-21T11:34:52.361Z,19.30
2019-02-21T11:35:52.375Z,19.10
2019-02-21T11:36:52.408Z,19.10
2019-02-21T11:37:52.424Z,19.00
2019-02-21T11:38:52.397Z,18.90
2019-02-21T11:39:52.393Z,18.30
2019-02-21T11:40:52.454Z,18.30
2019-02-21T11:41:52.451Z,18.20
2019-02-21T11:42:52.463Z,18.00
2019-02-21T11:43:52.451Z,18.70
2019-02-21T11:44:52.481Z,18.00
2019-02-21T11:45:55.277Z,17.70
2019-02-21T11:46:52.457Z,17.70
2019-02-21T11:47:52.531Z,19.00
2019-02-21T11:48:52.474Z,17.50
2019-02-21T11:49:52.559Z,17.60
2019-02-21T11:50:52.469Z,17.70
2019-02-21T11:51:52.503Z,17.60
2019-02-21T11:52:52.487Z,17.50
2019-02-21T11:53:52.496Z,17.60
2019-02-21T11:54:52.495Z,18.00
2019-02-21T11:55:52.556Z,17.70
2019-02-21T11:56:52.562Z,17.20
2019-02-21T11:57:52.521Z,16.70
2019-02-21T11:58:52.526Z,17.20
2019-02-21T11:59:52.541Z,17.70
2019-02-21T12:00:52.579Z,17.10
2019-02-21T12:01:52.561Z,17.10
2019-02-21T12:02:52.556Z,15.80
2019-02-21T12:03:52.578Z,16.70
2019-02-21T12:04:52.566Z,16.20
2019-02-21T12:05:52.599Z,16.30
2019-02-21T12:06:52.620Z,16.70
2019-02-21T12:07:52.600Z,15.00
2019-02-21T12:08:52.625Z,15.60
2019-02-21T12:09:52.609Z,15.10
2019-02-21T12:10:52.626Z,14.80
2019-02-21T12:11:52.658Z,16.20
2019-02-21T12:12:52.628Z,15.60
2019-02-21T12:13:52.657Z,15.50
2019-02-21T12:14:52.652Z,15.10
2019-02-21T12:15:52.646Z,14.90
2019-02-21T12:16:52.678Z,15.80
2019-02-21T12:17:52.661Z,16.40
2019-02-21T12:18:52.667Z,16.10
2019-02-21T12:19:52.687Z,16.30
2019-02-21T12:20:52.701Z,16.00
2019-02-21T12:21:58.947Z,15.90
2019-02-21T12:22:52.749Z,15.80
2019-02-21T12:23:52.722Z,15.90
2019-02-21T12:24:52.721Z,14.90
2019-02-21T12:25:52.719Z,15.70
2019-02-21T12:26:52.741Z,15.40
2019-02-21T12:27:52.779Z,15.20
2019-02-21T12:28:52.734Z,15.20
2019-02-21T12:29:52.752Z,14.90
2019-02-21T12:30:52.760Z,14.60
2019-02-21T12:31:52.781Z,15.00
2019-02-21T12:32:52.795Z,15.10
2019-02-21T12:33:52.784Z,15.20
2019-02-21T12:34:52.802Z,16.00
2019-02-21T12:35:52.805Z,15.00
2019-02-21T12:36:52.826Z,17.10
2019-02-21T12:37:52.827Z,16.00
2019-02-21T12:38:52.840Z,15.20
2019-02-21T12:39:52.846Z,15.40
2019-02-21T12:40:52.841Z,15.50
2019-02-21T12:41:52.848Z,16.00
2019-02-21T12:42:52.890Z,16.40
2019-02-21T12:43:52.860Z,15.80
2019-02-21T12:44:52.868Z,15.60
2019-02-21T12:45:52.878Z,15.80
2019-02-21T12:46:52.895Z,16.20
2019-02-21T12:47:54.034Z,16.00
2019-02-21T12:48:52.894Z,16.30
2019-02-21T12:49:55.355Z,17.30
2019-02-21T12:50:52.909Z,17.30
2019-02-21T12:51:52.913Z,18.30
2019-02-21T12:52:52.920Z,17.00
2019-02-21T12:53:52.935Z,15.30
2019-02-21T12:54:52.931Z,14.90
2019-02-21T12:55:52.969Z,13.10
2019-02-21T12:56:53.001Z,13.20